AVA2153 SKBQ-SEQM
Flight info
| Callsign | AVA2153 |
|---|---|
| Flight time | 1h 43m |
| Altitude | 35000 |
| Route | VOVL2D VOVLU W46 MGN UW3 MRN UW26 RNG UP778 BOKAN UP533 QIT |
| Aircraft | B788/H-V/N |
Departure
| Time | 2026-04-25 02:33 |
|---|---|
| Airport | Ernesto Cortissoz International Airport (SKBQ) |
Arrival
| Time | 2026-04-25 04:17 |
|---|---|
| Airport | Mariscal Sucre International Airport (SEQM) |
| Time | Latitude | Longitude | Altitude | Speed | Heading |
|---|---|---|---|---|---|
| 2026-04-25 02:01 | 10.88703 | -74.77751 | 116 ft | 0 kts | 139° |
| 2026-04-25 02:20 | 10.88705 | -74.77753 | 116 ft | 1 kts | 139° |
| 2026-04-25 02:20 | 10.88716 | -74.77763 | 117 ft | 3 kts | 139° |
| 2026-04-25 02:20 | 10.88732 | -74.77774 | 116 ft | 3 kts | 154° |
| 2026-04-25 02:21 | 10.88751 | -74.77781 | 116 ft | 3 kts | 173° |
| 2026-04-25 02:21 | 10.88772 | -74.77780 | 116 ft | 3 kts | 193° |
| 2026-04-25 02:21 | 10.88791 | -74.77773 | 116 ft | 3 kts | 212° |
| 2026-04-25 02:21 | 10.88803 | -74.77763 | 116 ft | 0 kts | 226° |
| 2026-04-25 02:22 | 10.88803 | -74.77764 | 116 ft | 0 kts | 226° |
| 2026-04-25 02:28 | 10.88789 | -74.77778 | 116 ft | 5 kts | 225° |
| 2026-04-25 02:28 | 10.88744 | -74.77820 | 116 ft | 12 kts | 221° |
| 2026-04-25 02:29 | 10.88658 | -74.77890 | 116 ft | 19 kts | 216° |
| 2026-04-25 02:29 | 10.88552 | -74.77976 | 116 ft | 20 kts | 220° |
| 2026-04-25 02:29 | 10.88426 | -74.78113 | 116 ft | 25 kts | 255° |
| 2026-04-25 02:29 | 10.88437 | -74.78259 | 116 ft | 18 kts | 261° |
| 2026-04-25 02:30 | 10.88368 | -74.78337 | 116 ft | 15 kts | 218° |
| 2026-04-25 02:30 | 10.88285 | -74.78408 | 116 ft | 16 kts | 220° |
| 2026-04-25 02:30 | 10.88200 | -74.78482 | 116 ft | 17 kts | 220° |
| 2026-04-25 02:30 | 10.88105 | -74.78562 | 116 ft | 18 kts | 219° |
| 2026-04-25 02:31 | 10.88003 | -74.78648 | 116 ft | 20 kts | 219° |
| 2026-04-25 02:31 | 10.87903 | -74.78741 | 116 ft | 16 kts | 244° |
| 2026-04-25 02:31 | 10.87893 | -74.78852 | 116 ft | 17 kts | 268° |
| 2026-04-25 02:31 | 10.87907 | -74.78911 | 116 ft | 0 kts | 301° |
| 2026-04-25 02:32 | 10.87912 | -74.78920 | 116 ft | 5 kts | 305° |
| 2026-04-25 02:32 | 10.87949 | -74.78939 | 116 ft | 5 kts | 8° |
| 2026-04-25 02:32 | 10.87969 | -74.78928 | 116 ft | 0 kts | 39° |
| 2026-04-25 02:33 | 10.88000 | -74.78902 | 116 ft | 32 kts | 40° |
| 2026-04-25 02:33 | 10.88435 | -74.78529 | 117 ft | 134 kts | 40° |
| 2026-04-25 02:33 | 10.89428 | -74.77675 | 215 ft | 229 kts | 40° |
| 2026-04-25 02:33 | 10.90814 | -74.76489 | 1150 ft | 287 kts | 40° |
| 2026-04-25 02:34 | 10.92561 | -74.75168 | 2681 ft | 337 kts | 30° |
| 2026-04-25 02:34 | 10.94864 | -74.74402 | 4038 ft | 365 kts | 6° |
| 2026-04-25 02:34 | 10.97364 | -74.74769 | 6167 ft | 369 kts | 336° |
| 2026-04-25 02:34 | 10.99456 | -74.76261 | 8957 ft | 367 kts | 315° |
| 2026-04-25 02:35 | 11.01261 | -74.78098 | 11813 ft | 369 kts | 307° |
| 2026-04-25 02:35 | 11.02800 | -74.80191 | 14184 ft | 372 kts | 306° |
| 2026-04-25 02:35 | 11.04404 | -74.82340 | 15896 ft | 394 kts | 305° |
| 2026-04-25 02:35 | 11.06059 | -74.84635 | 17201 ft | 396 kts | 303° |
| 2026-04-25 02:36 | 11.07346 | -74.87095 | 18151 ft | 401 kts | 288° |
| 2026-04-25 02:36 | 11.07834 | -74.89895 | 18903 ft | 406 kts | 271° |
| 2026-04-25 02:36 | 11.07449 | -74.92739 | 19657 ft | 410 kts | 254° |
| 2026-04-25 02:36 | 11.06202 | -74.95387 | 20406 ft | 420 kts | 237° |
| 2026-04-25 02:37 | 11.04215 | -74.97561 | 21157 ft | 427 kts | 221° |
| 2026-04-25 02:37 | 11.01676 | -74.99210 | 21927 ft | 436 kts | 211° |
| 2026-04-25 02:37 | 10.98916 | -75.00548 | 22691 ft | 442 kts | 206° |
| 2026-04-25 02:37 | 10.95971 | -75.01547 | 23438 ft | 452 kts | 194° |
| 2026-04-25 02:38 | 10.92771 | -75.01727 | 24203 ft | 463 kts | 180° |
| 2026-04-25 02:38 | 10.89551 | -75.01305 | 24968 ft | 472 kts | 172° |
| 2026-04-25 02:38 | 10.86334 | -75.00575 | 25727 ft | 478 kts | 169° |
| 2026-04-25 02:38 | 10.83103 | -74.99678 | 26487 ft | 484 kts | 167° |
| 2026-04-25 02:39 | 10.82027 | -74.99358 | 26738 ft | 486 kts | 166° |
| 2026-04-25 02:39 | 10.76618 | -74.97667 | 27990 ft | 494 kts | 165° |
| 2026-04-25 02:39 | 10.73304 | -74.96603 | 28638 ft | 501 kts | 165° |
| 2026-04-25 02:39 | 10.69958 | -74.95527 | 29167 ft | 506 kts | 165° |
| 2026-04-25 02:40 | 10.66602 | -74.94452 | 29671 ft | 510 kts | 165° |
| 2026-04-25 02:40 | 10.63186 | -74.93367 | 30176 ft | 514 kts | 165° |
| 2026-04-25 02:40 | 10.59760 | -74.92291 | 30677 ft | 518 kts | 166° |
| 2026-04-25 02:40 | 10.56299 | -74.91228 | 31179 ft | 521 kts | 166° |
| 2026-04-25 02:41 | 10.52759 | -74.90219 | 31686 ft | 524 kts | 168° |
| 2026-04-25 02:41 | 10.49216 | -74.89333 | 32189 ft | 526 kts | 170° |
| 2026-04-25 02:41 | 10.45659 | -74.88581 | 32687 ft | 528 kts | 172° |
| 2026-04-25 02:41 | 10.41975 | -74.87946 | 33197 ft | 530 kts | 174° |
| 2026-04-25 02:42 | 10.38331 | -74.87452 | 33697 ft | 531 kts | 176° |
| 2026-04-25 02:42 | 10.34628 | -74.87073 | 34202 ft | 531 kts | 178° |
| 2026-04-25 02:42 | 10.30982 | -74.86807 | 34698 ft | 528 kts | 179° |
| 2026-04-25 02:42 | 10.27282 | -74.86628 | 34919 ft | 530 kts | 180° |
| 2026-04-25 02:43 | 10.23614 | -74.86532 | 34981 ft | 523 kts | 182° |
| 2026-04-25 02:43 | 10.16392 | -74.86538 | 34996 ft | 519 kts | 184° |
| 2026-04-25 02:44 | 10.09148 | -74.86750 | 34996 ft | 518 kts | 185° |
| 2026-04-25 02:44 | 10.03184 | -74.87041 | 34996 ft | 517 kts | 186° |
| 2026-04-25 02:45 | 9.94770 | -74.87577 | 34996 ft | 516 kts | 187° |
| 2026-04-25 02:45 | 9.87601 | -74.88117 | 34996 ft | 516 kts | 187° |
| 2026-04-25 02:46 | 9.80459 | -74.88708 | 34996 ft | 516 kts | 187° |
| 2026-04-25 02:46 | 9.73329 | -74.89333 | 34996 ft | 515 kts | 188° |
| 2026-04-25 02:47 | 9.66174 | -74.89986 | 34996 ft | 515 kts | 188° |
| 2026-04-25 02:47 | 9.59021 | -74.90655 | 34996 ft | 515 kts | 188° |
| 2026-04-25 02:48 | 9.51902 | -74.91333 | 34996 ft | 515 kts | 188° |
| 2026-04-25 02:48 | 9.44743 | -74.92022 | 34996 ft | 516 kts | 188° |
| 2026-04-25 02:49 | 9.37627 | -74.92712 | 34996 ft | 515 kts | 188° |
| 2026-04-25 02:49 | 9.30488 | -74.93407 | 34996 ft | 515 kts | 188° |
| 2026-04-25 02:50 | 9.23307 | -74.94109 | 34996 ft | 515 kts | 188° |
| 2026-04-25 02:50 | 9.16203 | -74.94805 | 34996 ft | 515 kts | 188° |
| 2026-04-25 02:51 | 9.09036 | -74.95507 | 34996 ft | 515 kts | 188° |
| 2026-04-25 02:51 | 9.01926 | -74.96205 | 34996 ft | 515 kts | 188° |
| 2026-04-25 02:52 | 8.94795 | -74.96905 | 34996 ft | 515 kts | 188° |
| 2026-04-25 02:52 | 8.87622 | -74.97608 | 34996 ft | 515 kts | 188° |
| 2026-04-25 02:53 | 8.80525 | -74.98305 | 34996 ft | 515 kts | 188° |
| 2026-04-25 02:53 | 8.73360 | -74.99008 | 34996 ft | 515 kts | 188° |
| 2026-04-25 02:54 | 8.67433 | -74.99589 | 34996 ft | 515 kts | 188° |
| 2026-04-25 02:54 | 8.59079 | -75.00408 | 34996 ft | 515 kts | 188° |
| 2026-04-25 02:55 | 8.53141 | -75.01116 | 34994 ft | 512 kts | 194° |
| 2026-04-25 02:55 | 8.46331 | -75.03030 | 34998 ft | 510 kts | 201° |
| 2026-04-25 02:56 | 8.39604 | -75.05359 | 34996 ft | 509 kts | 201° |
| 2026-04-25 02:56 | 8.32874 | -75.07574 | 34996 ft | 510 kts | 200° |
| 2026-04-25 02:57 | 8.26013 | -75.09552 | 34996 ft | 511 kts | 197° |
| 2026-04-25 02:57 | 8.19099 | -75.11266 | 34996 ft | 512 kts | 195° |
| 2026-04-25 02:58 | 8.12111 | -75.12765 | 34996 ft | 513 kts | 194° |
| 2026-04-25 02:58 | 8.05097 | -75.14094 | 34996 ft | 513 kts | 193° |
| 2026-04-25 02:59 | 7.98068 | -75.15297 | 34996 ft | 514 kts | 192° |
| 2026-04-25 02:59 | 7.90992 | -75.16417 | 34996 ft | 514 kts | 191° |
| 2026-04-25 03:00 | 7.83910 | -75.17473 | 34996 ft | 514 kts | 191° |
| 2026-04-25 03:00 | 7.76821 | -75.18487 | 34996 ft | 514 kts | 191° |
| 2026-04-25 03:01 | 7.69727 | -75.19471 | 34996 ft | 514 kts | 190° |
| 2026-04-25 03:01 | 7.62635 | -75.20434 | 34996 ft | 514 kts | 190° |
| 2026-04-25 03:02 | 7.55512 | -75.21387 | 34996 ft | 514 kts | 190° |
| 2026-04-25 03:02 | 7.48443 | -75.22323 | 34996 ft | 514 kts | 190° |
| 2026-04-25 03:03 | 7.41343 | -75.23257 | 34996 ft | 515 kts | 190° |
| 2026-04-25 03:03 | 7.34228 | -75.24189 | 34996 ft | 515 kts | 190° |
| 2026-04-25 03:04 | 7.27096 | -75.25120 | 34996 ft | 515 kts | 190° |
| 2026-04-25 03:04 | 7.19980 | -75.26047 | 34996 ft | 515 kts | 190° |
| 2026-04-25 03:05 | 7.09337 | -75.27430 | 34996 ft | 515 kts | 190° |
| 2026-04-25 03:05 | 7.02334 | -75.28339 | 34996 ft | 515 kts | 190° |
| 2026-04-25 03:06 | 6.95232 | -75.29261 | 34996 ft | 515 kts | 190° |
| 2026-04-25 03:06 | 6.88096 | -75.30186 | 34996 ft | 515 kts | 190° |
| 2026-04-25 03:07 | 6.81019 | -75.31103 | 34996 ft | 515 kts | 190° |
| 2026-04-25 03:07 | 6.73876 | -75.32028 | 34996 ft | 515 kts | 190° |
| 2026-04-25 03:08 | 6.66802 | -75.32944 | 34996 ft | 515 kts | 190° |
| 2026-04-25 03:08 | 6.59675 | -75.33867 | 34996 ft | 515 kts | 190° |
| 2026-04-25 03:09 | 6.52557 | -75.34788 | 34996 ft | 515 kts | 190° |
| 2026-04-25 03:09 | 6.45504 | -75.35701 | 34996 ft | 515 kts | 190° |
| 2026-04-25 03:10 | 6.38377 | -75.36623 | 34996 ft | 515 kts | 190° |
| 2026-04-25 03:10 | 6.31219 | -75.37548 | 34996 ft | 515 kts | 190° |
| 2026-04-25 03:11 | 6.24128 | -75.38465 | 34996 ft | 515 kts | 190° |
| 2026-04-25 03:11 | 6.17003 | -75.39386 | 34996 ft | 515 kts | 190° |
| 2026-04-25 03:12 | 6.09931 | -75.40300 | 34996 ft | 515 kts | 190° |
| 2026-04-25 03:12 | 6.02833 | -75.41218 | 34996 ft | 515 kts | 190° |
| 2026-04-25 03:13 | 5.95807 | -75.42684 | 34997 ft | 511 kts | 198° |
| 2026-04-25 03:13 | 5.89066 | -75.44888 | 34996 ft | 510 kts | 202° |
| 2026-04-25 03:14 | 5.82431 | -75.47382 | 34996 ft | 509 kts | 204° |
| 2026-04-25 03:14 | 5.75844 | -75.49973 | 34996 ft | 509 kts | 204° |
| 2026-04-25 03:15 | 5.69258 | -75.52590 | 34996 ft | 509 kts | 204° |
| 2026-04-25 03:15 | 5.62642 | -75.55212 | 34996 ft | 509 kts | 204° |
| 2026-04-25 03:16 | 5.56201 | -75.57749 | 34996 ft | 509 kts | 204° |
| 2026-04-25 03:16 | 5.49590 | -75.60336 | 34996 ft | 509 kts | 204° |
| 2026-04-25 03:17 | 5.44097 | -75.62475 | 34996 ft | 509 kts | 204° |
| 2026-04-25 03:17 | 5.36385 | -75.65465 | 34996 ft | 509 kts | 204° |
| 2026-04-25 03:18 | 5.29782 | -75.68017 | 34996 ft | 509 kts | 204° |
| 2026-04-25 03:18 | 5.23184 | -75.70560 | 34996 ft | 509 kts | 204° |
| 2026-04-25 03:19 | 5.16543 | -75.73115 | 34996 ft | 509 kts | 204° |
| 2026-04-25 03:19 | 5.09957 | -75.75646 | 34996 ft | 509 kts | 203° |
| 2026-04-25 03:20 | 5.03334 | -75.78189 | 34996 ft | 509 kts | 203° |
| 2026-04-25 03:20 | 4.96699 | -75.80735 | 34996 ft | 509 kts | 203° |
| 2026-04-25 03:21 | 4.90082 | -75.83273 | 34996 ft | 509 kts | 203° |
| 2026-04-25 03:21 | 4.83483 | -75.85803 | 34996 ft | 509 kts | 203° |
| 2026-04-25 03:22 | 4.76842 | -75.88348 | 34996 ft | 509 kts | 203° |
| 2026-04-25 03:22 | 4.70206 | -75.90890 | 34996 ft | 509 kts | 203° |
| 2026-04-25 03:23 | 4.63607 | -75.93417 | 34996 ft | 509 kts | 203° |
| 2026-04-25 03:23 | 4.56988 | -75.95952 | 34996 ft | 509 kts | 203° |
| 2026-04-25 03:24 | 4.50334 | -75.98499 | 34996 ft | 509 kts | 203° |
| 2026-04-25 03:24 | 4.44826 | -76.00607 | 34996 ft | 509 kts | 203° |
| 2026-04-25 03:25 | 4.38188 | -76.03147 | 34996 ft | 509 kts | 203° |
| 2026-04-25 03:25 | 4.30473 | -76.06099 | 34996 ft | 509 kts | 203° |
| 2026-04-25 03:26 | 4.24984 | -76.08199 | 34996 ft | 509 kts | 203° |
| 2026-04-25 03:26 | 4.18354 | -76.10735 | 34996 ft | 509 kts | 203° |
| 2026-04-25 03:27 | 4.11744 | -76.13262 | 34996 ft | 509 kts | 203° |
| 2026-04-25 03:27 | 4.05111 | -76.15798 | 34996 ft | 509 kts | 203° |
| 2026-04-25 03:28 | 3.98478 | -76.18334 | 34996 ft | 509 kts | 203° |
| 2026-04-25 03:28 | 3.91860 | -76.20863 | 34996 ft | 509 kts | 203° |
| 2026-04-25 03:29 | 3.85229 | -76.23397 | 34996 ft | 509 kts | 203° |
| 2026-04-25 03:29 | 3.78614 | -76.25925 | 34996 ft | 509 kts | 203° |
| 2026-04-25 03:30 | 3.72008 | -76.28449 | 34996 ft | 509 kts | 203° |
| 2026-04-25 03:30 | 3.65355 | -76.30990 | 34996 ft | 509 kts | 203° |
| 2026-04-25 03:31 | 3.58768 | -76.33506 | 34996 ft | 509 kts | 203° |
| 2026-04-25 03:31 | 3.52133 | -76.36041 | 34996 ft | 509 kts | 203° |
| 2026-04-25 03:32 | 3.45517 | -76.38569 | 34996 ft | 509 kts | 203° |
| 2026-04-25 03:32 | 3.39016 | -76.41336 | 34996 ft | 507 kts | 208° |
| 2026-04-25 03:33 | 3.32730 | -76.44597 | 34996 ft | 506 kts | 211° |
| 2026-04-25 03:33 | 3.26574 | -76.48042 | 34996 ft | 506 kts | 212° |
| 2026-04-25 03:34 | 3.20519 | -76.51521 | 34996 ft | 506 kts | 212° |
| 2026-04-25 03:34 | 3.14407 | -76.55056 | 34996 ft | 505 kts | 212° |
| 2026-04-25 03:35 | 3.08311 | -76.58579 | 34996 ft | 506 kts | 212° |
| 2026-04-25 03:35 | 3.02226 | -76.62087 | 34996 ft | 506 kts | 212° |
| 2026-04-25 03:36 | 2.96115 | -76.65599 | 34996 ft | 506 kts | 212° |
| 2026-04-25 03:36 | 2.90019 | -76.69093 | 34996 ft | 506 kts | 212° |
| 2026-04-25 03:37 | 2.83867 | -76.72612 | 34996 ft | 506 kts | 212° |
| 2026-04-25 03:37 | 2.77779 | -76.76089 | 34996 ft | 506 kts | 212° |
| 2026-04-25 03:38 | 2.71658 | -76.79581 | 34996 ft | 506 kts | 212° |
| 2026-04-25 03:38 | 2.65517 | -76.83082 | 34996 ft | 506 kts | 212° |
| 2026-04-25 03:39 | 2.59445 | -76.86540 | 34996 ft | 506 kts | 212° |
| 2026-04-25 03:39 | 2.53289 | -76.90046 | 34996 ft | 506 kts | 212° |
| 2026-04-25 03:40 | 2.47166 | -76.93531 | 34996 ft | 506 kts | 212° |
| 2026-04-25 03:40 | 2.41057 | -76.97007 | 34996 ft | 506 kts | 212° |
| 2026-04-25 03:41 | 2.34951 | -77.00481 | 34996 ft | 506 kts | 212° |
| 2026-04-25 03:41 | 2.28828 | -77.03964 | 34996 ft | 506 kts | 212° |
| 2026-04-25 03:42 | 2.22715 | -77.07441 | 34996 ft | 506 kts | 212° |
| 2026-04-25 03:42 | 2.16582 | -77.10928 | 34996 ft | 506 kts | 212° |
| 2026-04-25 03:43 | 2.13914 | -77.12445 | 34996 ft | 505 kts | 212° |
| 2026-04-25 03:43 | 2.10883 | -77.14168 | 34892 ft | 498 kts | 212° |
| 2026-04-25 03:43 | 2.07902 | -77.15859 | 34661 ft | 484 kts | 212° |
| 2026-04-25 03:44 | 2.04990 | -77.17510 | 34408 ft | 475 kts | 212° |
| 2026-04-25 03:44 | 2.02133 | -77.19130 | 34156 ft | 471 kts | 212° |
| 2026-04-25 03:44 | 1.99287 | -77.20747 | 33906 ft | 471 kts | 212° |
| 2026-04-25 03:44 | 1.96422 | -77.22376 | 33656 ft | 472 kts | 212° |
| 2026-04-25 03:45 | 1.93548 | -77.24011 | 33405 ft | 473 kts | 212° |
| 2026-04-25 03:45 | 1.90718 | -77.25622 | 33153 ft | 473 kts | 212° |
| 2026-04-25 03:45 | 1.87861 | -77.27248 | 32833 ft | 475 kts | 212° |
| 2026-04-25 03:45 | 1.84952 | -77.28904 | 32485 ft | 475 kts | 212° |
| 2026-04-25 03:46 | 1.82101 | -77.30526 | 32140 ft | 475 kts | 212° |
| 2026-04-25 03:46 | 1.79220 | -77.32165 | 31791 ft | 476 kts | 212° |
| 2026-04-25 03:46 | 1.76337 | -77.33805 | 31442 ft | 476 kts | 212° |
| 2026-04-25 03:46 | 1.73457 | -77.35442 | 31094 ft | 477 kts | 212° |
| 2026-04-25 03:47 | 1.70589 | -77.37073 | 30748 ft | 478 kts | 212° |
| 2026-04-25 03:47 | 1.67678 | -77.38728 | 30421 ft | 477 kts | 212° |
| 2026-04-25 03:47 | 1.64484 | -77.40542 | 30126 ft | 473 kts | 212° |
| 2026-04-25 03:48 | 1.61628 | -77.42164 | 29872 ft | 469 kts | 212° |
| 2026-04-25 03:48 | 1.58818 | -77.43759 | 29622 ft | 467 kts | 212° |
| 2026-04-25 03:48 | 1.55987 | -77.45366 | 29370 ft | 465 kts | 212° |
| 2026-04-25 03:48 | 1.53171 | -77.46966 | 29161 ft | 466 kts | 212° |
| 2026-04-25 03:49 | 1.50333 | -77.48580 | 28978 ft | 476 kts | 212° |
| 2026-04-25 03:49 | 1.47446 | -77.50225 | 28808 ft | 484 kts | 212° |
| 2026-04-25 03:49 | 1.44502 | -77.51901 | 28637 ft | 488 kts | 212° |
| 2026-04-25 03:49 | 1.41535 | -77.53590 | 28466 ft | 492 kts | 212° |
| 2026-04-25 03:50 | 1.38549 | -77.55287 | 28295 ft | 495 kts | 212° |
| 2026-04-25 03:50 | 1.35521 | -77.57009 | 28124 ft | 497 kts | 212° |
| 2026-04-25 03:50 | 1.32531 | -77.58708 | 27956 ft | 499 kts | 212° |
| 2026-04-25 03:50 | 1.29512 | -77.60422 | 27786 ft | 501 kts | 212° |
| 2026-04-25 03:51 | 1.26444 | -77.62164 | 27623 ft | 501 kts | 212° |
| 2026-04-25 03:51 | 1.23439 | -77.63870 | 27494 ft | 502 kts | 212° |
| 2026-04-25 03:51 | 1.20374 | -77.65610 | 27370 ft | 503 kts | 212° |
| 2026-04-25 03:51 | 1.17351 | -77.67326 | 27248 ft | 504 kts | 212° |
| 2026-04-25 03:52 | 1.14282 | -77.69068 | 27124 ft | 504 kts | 212° |
| 2026-04-25 03:52 | 1.11229 | -77.70801 | 27001 ft | 505 kts | 212° |
| 2026-04-25 03:52 | 1.08173 | -77.72536 | 26878 ft | 505 kts | 212° |
| 2026-04-25 03:52 | 1.05134 | -77.74262 | 26756 ft | 506 kts | 212° |
| 2026-04-25 03:53 | 1.02070 | -77.76001 | 26632 ft | 503 kts | 212° |
| 2026-04-25 03:53 | 0.99071 | -77.77700 | 26484 ft | 477 kts | 212° |
| 2026-04-25 03:53 | 0.96283 | -77.79274 | 26333 ft | 454 kts | 212° |
| 2026-04-25 03:53 | 0.93589 | -77.80796 | 26190 ft | 435 kts | 212° |
| 2026-04-25 03:54 | 0.90958 | -77.82286 | 26070 ft | 432 kts | 212° |
| 2026-04-25 03:54 | 0.88331 | -77.83785 | 25975 ft | 449 kts | 212° |
| 2026-04-25 03:54 | 0.85562 | -77.85372 | 25888 ft | 464 kts | 212° |
| 2026-04-25 03:54 | 0.82762 | -77.87022 | 25795 ft | 468 kts | 214° |
| 2026-04-25 03:55 | 0.80799 | -77.88272 | 25727 ft | 470 kts | 216° |
| 2026-04-25 03:55 | 0.78078 | -77.90107 | 25631 ft | 473 kts | 217° |
| 2026-04-25 03:55 | 0.75372 | -77.92019 | 25538 ft | 476 kts | 218° |
| 2026-04-25 03:55 | 0.73281 | -77.93537 | 25465 ft | 478 kts | 218° |
| 2026-04-25 03:56 | 0.71399 | -77.94925 | 25398 ft | 479 kts | 219° |
| 2026-04-25 03:56 | 0.70108 | -77.95886 | 25352 ft | 479 kts | 219° |
| 2026-04-25 03:56 | 0.68673 | -77.96961 | 25300 ft | 480 kts | 219° |
| 2026-04-25 03:56 | 0.66961 | -77.98248 | 25238 ft | 480 kts | 219° |
| 2026-04-25 03:57 | 0.64974 | -77.99748 | 25166 ft | 481 kts | 219° |
| 2026-04-25 03:57 | 0.64362 | -78.00210 | 25143 ft | 481 kts | 219° |
| 2026-04-25 03:57 | 0.61682 | -78.02225 | 25046 ft | 482 kts | 219° |
| 2026-04-25 03:58 | 0.59022 | -78.04217 | 24949 ft | 483 kts | 219° |
| 2026-04-25 03:58 | 0.56320 | -78.06237 | 24850 ft | 483 kts | 219° |
| 2026-04-25 03:58 | 0.53627 | -78.08248 | 24752 ft | 483 kts | 219° |
| 2026-04-25 03:58 | 0.50955 | -78.10241 | 24566 ft | 466 kts | 219° |
| 2026-04-25 03:59 | 0.48428 | -78.12120 | 24307 ft | 446 kts | 219° |
| 2026-04-25 03:59 | 0.45996 | -78.13922 | 24046 ft | 431 kts | 219° |
| 2026-04-25 03:59 | 0.43592 | -78.15700 | 23783 ft | 420 kts | 219° |
| 2026-04-25 03:59 | 0.41267 | -78.17417 | 23525 ft | 411 kts | 219° |
| 2026-04-25 04:00 | 0.38993 | -78.19106 | 23270 ft | 405 kts | 219° |
| 2026-04-25 04:00 | 0.36970 | -78.20614 | 23043 ft | 402 kts | 219° |
| 2026-04-25 04:00 | 0.35403 | -78.21785 | 22867 ft | 401 kts | 219° |
| 2026-04-25 04:01 | 0.33186 | -78.23444 | 22617 ft | 399 kts | 219° |
| 2026-04-25 04:01 | 0.30967 | -78.25105 | 22413 ft | 397 kts | 219° |
| 2026-04-25 04:01 | 0.28759 | -78.26758 | 22274 ft | 398 kts | 219° |
| 2026-04-25 04:01 | 0.26521 | -78.28434 | 22044 ft | 399 kts | 219° |
| 2026-04-25 04:02 | 0.24301 | -78.30096 | 21798 ft | 399 kts | 219° |
| 2026-04-25 04:02 | 0.22081 | -78.31756 | 21549 ft | 399 kts | 219° |
| 2026-04-25 04:02 | 0.19872 | -78.33405 | 21305 ft | 399 kts | 219° |
| 2026-04-25 04:02 | 0.17640 | -78.35070 | 21144 ft | 399 kts | 219° |
| 2026-04-25 04:03 | 0.16201 | -78.36144 | 21059 ft | 399 kts | 219° |
| 2026-04-25 04:03 | 0.14149 | -78.37675 | 20943 ft | 399 kts | 219° |
| 2026-04-25 04:03 | 0.11921 | -78.39338 | 20818 ft | 399 kts | 219° |
| 2026-04-25 04:03 | 0.09695 | -78.41000 | 20693 ft | 399 kts | 219° |
| 2026-04-25 04:04 | 0.07482 | -78.42652 | 20568 ft | 398 kts | 219° |
| 2026-04-25 04:04 | 0.05250 | -78.44319 | 20442 ft | 398 kts | 219° |
| 2026-04-25 04:04 | 0.03033 | -78.45975 | 20240 ft | 398 kts | 219° |
| 2026-04-25 04:04 | 0.00852 | -78.47605 | 19997 ft | 395 kts | 219° |
| 2026-04-25 04:05 | -0.01343 | -78.49246 | 19744 ft | 388 kts | 219° |
| 2026-04-25 04:05 | -0.03575 | -78.50644 | 19471 ft | 372 kts | 206° |
| 2026-04-25 04:05 | -0.04850 | -78.51065 | 19330 ft | 365 kts | 196° |
| 2026-04-25 04:06 | -0.05349 | -78.51162 | 19276 ft | 363 kts | 192° |
| 2026-04-25 04:06 | -0.07832 | -78.51268 | 19033 ft | 349 kts | 179° |
| 2026-04-25 04:06 | -0.10178 | -78.50872 | 18780 ft | 336 kts | 170° |
| 2026-04-25 04:07 | -0.12408 | -78.50315 | 18520 ft | 321 kts | 171° |
| 2026-04-25 04:07 | -0.14525 | -78.49829 | 18277 ft | 306 kts | 171° |
| 2026-04-25 04:07 | -0.16532 | -78.49378 | 18095 ft | 289 kts | 173° |
| 2026-04-25 04:07 | -0.18452 | -78.49011 | 17888 ft | 276 kts | 175° |
| 2026-04-25 04:08 | -0.20358 | -78.48721 | 17419 ft | 273 kts | 176° |
| 2026-04-25 04:08 | -0.22245 | -78.48494 | 16940 ft | 270 kts | 178° |
| 2026-04-25 04:08 | -0.24102 | -78.48321 | 16448 ft | 269 kts | 179° |
| 2026-04-25 04:08 | -0.25975 | -78.48185 | 15856 ft | 271 kts | 180° |
| 2026-04-25 04:09 | -0.27877 | -78.48082 | 15234 ft | 274 kts | 180° |
| 2026-04-25 04:09 | -0.29800 | -78.47960 | 14613 ft | 278 kts | 179° |
| 2026-04-25 04:09 | -0.31738 | -78.47801 | 13993 ft | 280 kts | 178° |
| 2026-04-25 04:09 | -0.33663 | -78.47595 | 13457 ft | 279 kts | 176° |
| 2026-04-25 04:10 | -0.35558 | -78.47335 | 13205 ft | 267 kts | 171° |
| 2026-04-25 04:10 | -0.37259 | -78.46731 | 12942 ft | 257 kts | 149° |
| 2026-04-25 04:10 | -0.38612 | -78.45619 | 12697 ft | 247 kts | 140° |
| 2026-04-25 04:10 | -0.39819 | -78.44441 | 12437 ft | 237 kts | 137° |
| 2026-04-25 04:11 | -0.41500 | -78.41736 | 11885 ft | 226 kts | 104° |
| 2026-04-25 04:11 | -0.41595 | -78.40183 | 11629 ft | 224 kts | 79° |
| 2026-04-25 04:11 | -0.40954 | -78.38821 | 11370 ft | 221 kts | 45° |
| 2026-04-25 04:12 | -0.39674 | -78.38014 | 11129 ft | 218 kts | 17° |
| 2026-04-25 04:12 | -0.38179 | -78.37672 | 10891 ft | 219 kts | 6° |
| 2026-04-25 04:12 | -0.36694 | -78.37448 | 10683 ft | 219 kts | 12° |
| 2026-04-25 04:12 | -0.35226 | -78.37062 | 10556 ft | 217 kts | 17° |
| 2026-04-25 04:13 | -0.33782 | -78.36584 | 10510 ft | 216 kts | 19° |
| 2026-04-25 04:13 | -0.32380 | -78.36062 | 10503 ft | 217 kts | 21° |
| 2026-04-25 04:13 | -0.31459 | -78.35700 | 10503 ft | 218 kts | 19° |
| 2026-04-25 04:13 | -0.29987 | -78.35306 | 10503 ft | 220 kts | 11° |
| 2026-04-25 04:14 | -0.28491 | -78.35039 | 10502 ft | 221 kts | 6° |
| 2026-04-25 04:14 | -0.26947 | -78.34962 | 10505 ft | 221 kts | 2° |
| 2026-04-25 04:14 | -0.25416 | -78.34894 | 10501 ft | 222 kts | 1° |
| 2026-04-25 04:14 | -0.23873 | -78.34862 | 10510 ft | 216 kts | 0° |
| 2026-04-25 04:15 | -0.22376 | -78.34891 | 10402 ft | 216 kts | 356° |
| 2026-04-25 04:15 | -0.20892 | -78.34980 | 9874 ft | 209 kts | 356° |
| 2026-04-25 04:15 | -0.19454 | -78.35061 | 9275 ft | 207 kts | 357° |
| 2026-04-25 04:15 | -0.18018 | -78.35135 | 8763 ft | 204 kts | 356° |
| 2026-04-25 04:16 | -0.16635 | -78.35229 | 8431 ft | 194 kts | 355° |
| 2026-04-25 04:16 | -0.15312 | -78.35310 | 8098 ft | 186 kts | 357° |
| 2026-04-25 04:16 | -0.14059 | -78.35361 | 7910 ft | 175 kts | 357° |
| 2026-04-25 04:16 | -0.12957 | -78.35412 | 7879 ft | 136 kts | 357° |
| 2026-04-25 04:17 | -0.12253 | -78.35445 | 7879 ft | 60 kts | 358° |
| 2026-04-25 04:17 | -0.12000 | -78.35456 | 7879 ft | 27 kts | 358° |
| 2026-04-25 04:17 | -0.11843 | -78.35469 | 7879 ft | 19 kts | 348° |
| 2026-04-25 04:17 | -0.11745 | -78.35510 | 7879 ft | 12 kts | 330° |
| 2026-04-25 04:18 | -0.11708 | -78.35532 | 7879 ft | 1 kts | 329° |
| 2026-04-25 04:19 | -0.11707 | -78.35532 | 7879 ft | 0 kts | 329° |
| 2026-04-25 04:19 | -0.11694 | -78.35540 | 7879 ft | 5 kts | 329° |
| 2026-04-25 04:20 | -0.11670 | -78.35555 | 7879 ft | 4 kts | 328° |
| 2026-04-25 04:20 | -0.11643 | -78.35571 | 7879 ft | 5 kts | 326° |
| 2026-04-25 04:20 | -0.11618 | -78.35602 | 7879 ft | 6 kts | 296° |
| 2026-04-25 04:20 | -0.11617 | -78.35641 | 7879 ft | 5 kts | 233° |
| 2026-04-25 04:21 | -0.11644 | -78.35646 | 7879 ft | 4 kts | 178° |
| 2026-04-25 04:21 | -0.11681 | -78.35644 | 7879 ft | 6 kts | 178° |
| 2026-04-25 04:21 | -0.11746 | -78.35643 | 7879 ft | 16 kts | 177° |
| 2026-04-25 04:21 | -0.11905 | -78.35634 | 7879 ft | 28 kts | 177° |
| 2026-04-25 04:22 | -0.12099 | -78.35627 | 7879 ft | 28 kts | 178° |
| 2026-04-25 04:22 | -0.12282 | -78.35621 | 7879 ft | 21 kts | 178° |
| 2026-04-25 04:22 | -0.12350 | -78.35641 | 7879 ft | 5 kts | 240° |
| 2026-04-25 04:22 | -0.12356 | -78.35663 | 7879 ft | 2 kts | 262° |
| 2026-04-25 04:23 | -0.12358 | -78.35682 | 7879 ft | 5 kts | 263° |
| 2026-04-25 04:23 | -0.12360 | -78.35712 | 7879 ft | 8 kts | 266° |
| 2026-04-25 04:23 | -0.12363 | -78.35776 | 7879 ft | 9 kts | 266° |
| 2026-04-25 04:23 | -0.12366 | -78.35829 | 7879 ft | 6 kts | 266° |
| 2026-04-25 04:24 | -0.12368 | -78.35860 | 7879 ft | 4 kts | 266° |
| 2026-04-25 04:24 | -0.12370 | -78.35886 | 7879 ft | 4 kts | 266° |
| 2026-04-25 04:24 | -0.12372 | -78.35915 | 7879 ft | 4 kts | 265° |
| 2026-04-25 04:24 | -0.12373 | -78.35938 | 7879 ft | 0 kts | 265° |
| 2026-04-25 04:26 | 10.88704 | -74.77751 | 98 ft | 0 kts | 139° |